Time;durP1;ratioP1;P1;durP2;ratioP2;P2;SDS_P1;SDS_P2;PMS_P1;PMS_P2;Temp;Humidity;BMP_temperature;BMP_pressure;BME280_temperature;BME280_humidity;BME280_pressure;Samples;Min_cycle;Max_cycle;Signal;HPM_P1;HPM_P2
2022/12/23 00:01:13;;;;;;;49.45;32.47;;;;;;;2.89;56.24;93693.56;4990186;28;20342;-71
2022/12/23 00:03:39;;;;;;;45.30;29.67;;;;;;;2.96;55.74;93704.53;4993472;28;20563;-72
2022/12/23 00:06:13;;;;;;;52.28;31.95;;;;;;;2.87;55.84;93683.28;4993286;28;20040;-71
2022/12/23 00:08:42;;;;;;;46.08;30.88;;;;;;;2.96;55.70;93699.28;4992849;28;20046;-72
2022/12/23 00:11:13;;;;;;;55.28;34.13;;;;;;;2.93;55.66;93694.59;4994283;28;20041;-72
2022/12/23 00:16:22;;;;;;;57.55;36.08;;;;;;;2.96;55.58;93717.69;4989578;28;20097;-72
2022/12/23 00:18:48;;;;;;;55.28;36.17;;;;;;;2.95;55.79;93716.88;4992967;28;20038;-71
2022/12/23 00:21:15;;;;;;;63.15;38.13;;;;;;;3.17;55.18;93719.19;4991090;28;20146;-72
2022/12/23 00:23:43;;;;;;;59.00;39.10;;;;;;;3.01;55.44;93719.50;4996156;28;20100;-71
2022/12/23 00:26:18;;;;;;;58.53;39.70;;;;;;;2.85;55.86;93711.66;4993435;28;20049;-71
2022/12/23 00:28:43;;;;;;;69.60;40.80;;;;;;;2.70;55.78;93685.44;5010864;28;20570;-73
2022/12/23 00:31:09;;;;;;;62.00;39.88;;;;;;;3.00;55.22;93718.72;4995403;28;20038;-73
2022/12/23 00:33:37;;;;;;;63.67;39.40;;;;;;;2.96;55.66;93720.31;4995204;28;20022;-71
2022/12/23 00:36:24;;;;;;;71.20;41.10;;;;;;;2.82;55.87;93700.91;4997306;28;20561;-71
2022/12/23 00:44:19;;;;;;;64.25;38.15;;;;;;;2.82;55.65;93695.66;4997362;28;20638;-71
2022/12/23 00:46:44;;;;;;;54.53;36.60;;;;;;;2.82;56.09;93701.69;4994402;28;20041;-71
2022/12/23 00:51:56;;;;;;;39.97;24.73;;;;;;;2.96;55.71;93699.28;4994576;28;20108;-71
2022/12/23 00:54:21;;;;;;;33.90;22.00;;;;;;;2.86;56.00;93686.97;4996875;28;20030;-71
2022/12/23 00:56:46;;;;;;;32.88;21.70;;;;;;;2.94;55.77;93688.25;4993833;28;20079;-71
2022/12/23 00:59:12;;;;;;;37.40;23.05;;;;;;;2.92;55.92;93679.88;4994277;28;20052;-71
2022/12/23 01:07:05;;;;;;;61.15;38.50;;;;;;;2.89;55.76;93704.06;4995655;28;20092;-71
2022/12/23 01:09:31;;;;;;;90.85;49.40;;;;;;;2.97;55.75;93711.38;4995968;28;20153;-71
2022/12/23 01:11:56;;;;;;;61.15;36.92;;;;;;;3.11;55.29;93715.00;4994180;28;20040;-71
2022/12/23 01:14:22;;;;;;;56.72;35.47;;;;;;;3.02;55.57;93700.84;4996313;28;20287;-71
2022/12/23 01:16:47;;;;;;;59.22;32.70;;;;;;;3.00;55.57;93702.94;4992003;28;20401;-71
2022/12/23 01:19:13;;;;;;;55.25;33.53;;;;;;;2.93;55.85;93697.22;4992567;28;20038;-71
2022/12/23 01:21:39;;;;;;;50.72;32.25;;;;;;;2.87;56.29;93700.91;4992155;28;20034;-71
2022/12/23 01:24:05;;;;;;;50.45;32.55;;;;;;;2.90;55.97;93705.59;4994152;28;20068;-71
2022/12/23 01:26:30;;;;;;;52.65;33.75;;;;;;;2.90;56.04;93702.97;4994694;28;20038;-71
2022/12/23 01:28:57;;;;;;;59.10;34.05;;;;;;;2.96;56.04;93707.97;4992306;28;20466;-72
2022/12/23 01:31:24;;;;;;;52.65;32.47;;;;;;;3.02;56.15;93708.72;4994079;28;20084;-72
2022/12/23 01:33:50;;;;;;;50.92;32.40;;;;;;;3.10;55.77;93695.03;4991298;28;20524;-72
2022/12/23 01:36:16;;;;;;;49.58;30.67;;;;;;;3.17;55.80;93692.13;4994963;28;20413;-72
2022/12/23 01:38:41;;;;;;;46.75;29.65;;;;;;;3.15;55.67;93688.97;4989741;28;20713;-71
2022/12/23 01:41:07;;;;;;;41.65;28.55;;;;;;;2.78;56.70;93676.25;4991650;28;20046;-71
2022/12/23 01:44:02;;;;;;;45.47;27.65;;;;;;;2.83;57.43;93684.09;4990513;28;20439;-71
2022/12/23 01:46:27;;;;;;;43.20;28.38;;;;;;;2.88;56.72;93678.84;4979269;28;20053;-71
2022/12/23 01:48:53;;;;;;;50.20;28.70;;;;;;;3.10;56.01;93678.47;4989874;28;20076;-72
2022/12/23 01:51:24;;;;;;;48.28;30.00;;;;;;;3.10;56.15;93662.72;4992651;28;20120;-72
2022/12/23 01:53:53;;;;;;;47.38;28.98;;;;;;;3.12;55.74;93650.88;4993468;28;20117;-71
2022/12/23 01:56:25;;;;;;;49.35;28.92;;;;;;;3.36;55.67;93669.44;4991206;28;20393;-72
2022/12/23 01:58:56;;;;;;;40.50;28.75;;;;;;;3.30;55.59;93654.72;4993262;28;20112;-71
2022/12/23 02:04:09;;;;;;;50.35;31.30;;;;;;;3.36;55.49;93636.03;4993604;28;20040;-71
2022/12/23 02:09:30;;;;;;;43.10;26.23;;;;;;;3.61;55.00;93644.81;4993528;28;20401;-73
2022/12/23 02:12:14;;;;;;;44.92;28.65;;;;;;;3.71;54.54;93639.50;4991730;28;20038;-71
2022/12/23 02:18:20;;;;;;;36.53;24.75;;;;;;;3.76;54.35;93639.47;4991141;28;20164;-72
2022/12/23 02:21:06;;;;;;;46.40;29.60;;;;;;;3.45;55.33;93627.56;4995047;28;20449;-71
2022/12/23 02:23:45;;;;;;;42.50;29.17;;;;;;;3.73;54.57;93624.22;4993592;28;20215;-72
2022/12/23 02:26:34;;;;;;;46.88;28.83;;;;;;;3.55;54.94;93630.13;4993177;28;20128;-71
2022/12/23 02:29:18;;;;;;;43.10;28.98;;;;;;;3.73;54.77;93634.72;4989482;28;20208;-72
2022/12/23 02:32:14;;;;;;;46.35;28.55;;;;;;;3.72;54.82;93635.81;4993855;28;20034;-72
2022/12/23 02:34:45;;;;;;;50.97;30.45;;;;;;;3.63;55.10;93629.53;4996592;28;20052;-71
2022/12/23 02:37:29;;;;;;;78.57;46.88;;;;;;;3.62;54.97;93628.78;4992378;28;20034;-72
2022/12/23 02:40:04;;;;;;;84.68;45.67;;;;;;;3.79;54.81;93636.28;4992068;28;20555;-71
2022/12/23 02:42:32;;;;;;;;;;;;;;;3.87;53.89;93604.09;4994194;28;20034;-72
2022/12/23 02:45:10;;;;;;;62.70;37.45;;;;;;;3.97;54.06;93630.31;4989473;28;19921;-72
2022/12/23 02:47:46;;;;;;;68.97;41.22;;;;;;;3.77;54.55;93627.88;4995282;28;20516;-71
2022/12/23 02:50:22;;;;;;;63.03;38.42;;;;;;;3.71;54.43;93613.97;4991822;28;20049;-72
2022/12/23 02:52:48;;;;;;;;;;;;;;;3.73;54.46;93622.38;4994031;28;20041;-72
2022/12/23 02:55:42;;;;;;;45.53;30.65;;;;;;;3.63;54.69;93595.34;4991428;28;20569;-71
2022/12/23 02:58:12;;;;;;;61.30;36.40;;;;;;;3.68;54.57;93629.50;4988940;28;20037;-72
2022/12/23 03:00:40;;;;;;;56.47;35.00;;;;;;;3.51;55.22;93613.34;4991533;28;20401;-71
2022/12/23 03:03:06;;;;;;;62.47;37.25;;;;;;;3.53;55.08;93616.47;4992864;28;20021;-72
2022/12/23 03:05:41;;;;;;;68.00;41.97;;;;;;;3.24;56.55;93638.19;4992086;28;20479;-71
2022/12/23 03:08:21;;;;;;;75.30;48.40;;;;;;;3.38;56.22;93622.59;4991177;28;20091;-72
2022/12/23 03:11:09;;;;;;;90.93;57.75;;;;;;;2.92;57.26;93632.59;4993878;28;20030;-71
2022/12/23 03:13:55;;;;;;;94.00;61.58;;;;;;;2.48;59.36;93651.63;4993997;28;20128;-71
2022/12/23 03:16:39;;;;;;;101.47;63.88;;;;;;;2.75;58.63;93637.38;4991518;28;20046;-72
2022/12/23 03:19:14;;;;;;;110.63;69.32;;;;;;;3.07;58.38;93644.88;4988533;28;20034;-71
2022/12/23 03:22:08;;;;;;;132.95;82.88;;;;;;;2.81;58.54;93647.59;4993228;28;20506;-72
2022/12/23 03:24:57;;;;;;;125.93;80.10;;;;;;;2.71;58.84;93637.13;4991928;28;20037;-71
2022/12/23 03:27:35;;;;;;;119.20;75.68;;;;;;;2.71;58.78;93620.56;4991322;28;20045;-71
2022/12/23 03:30:05;;;;;;;142.85;91.10;;;;;;;1.58;63.63;93624.41;4991432;28;20527;-72
2022/12/23 03:32:35;;;;;;;154.43;95.13;;;;;;;2.14;61.81;93626.25;5005054;28;20469;-71
2022/12/23 03:35:04;;;;;;;167.68;109.32;;;;;;;1.82;62.83;93624.66;4992470;28;20060;-72
2022/12/23 03:37:32;;;;;;;186.15;115.80;;;;;;;2.47;60.34;93641.41;4991487;28;20049;-73
2022/12/23 03:40:06;;;;;;;183.93;113.00;;;;;;;2.68;59.34;93636.88;4990673;28;20361;-72
2022/12/23 03:42:36;;;;;;;192.55;120.63;;;;;;;1.88;60.61;93639.38;4994102;28;20072;-71
2022/12/23 03:45:09;;;;;;;192.63;122.18;;;;;;;2.20;60.58;93641.72;4989523;28;20564;-72
2022/12/23 03:47:44;;;;;;;199.30;125.55;;;;;;;2.41;59.08;93642.44;4993404;28;20733;-72
2022/12/23 03:50:13;;;;;;;204.30;123.45;;;;;;;2.00;60.93;93639.91;4990818;28;20180;-72
2022/12/23 03:52:48;;;;;;;191.40;118.85;;;;;;;2.55;59.13;93653.97;4992496;28;20065;-71
2022/12/23 03:55:21;;;;;;;192.27;118.47;;;;;;;2.63;58.50;93635.06;5007192;28;20042;-72
2022/12/23 03:57:57;;;;;;;189.52;119.90;;;;;;;2.73;58.09;93645.53;4992058;28;20261;-71
2022/12/23 04:00:22;;;;;;;187.65;117.60;;;;;;;2.64;58.08;93636.63;4993304;28;20346;-72
2022/12/23 04:03:01;;;;;;;195.02;118.05;;;;;;;2.89;57.78;93659.41;4991437;28;20415;-72
2022/12/23 04:05:31;;;;;;;185.95;114.72;;;;;;;3.25;56.56;93647.66;4993374;28;20190;-71
2022/12/23 04:08:24;;;;;;;207.80;123.82;;;;;;;3.18;56.88;93639.31;4990267;28;20637;-72
2022/12/23 04:10:50;;;;;;;191.07;119.30;;;;;;;3.11;57.40;93627.50;4992722;28;20058;-72
2022/12/23 04:13:16;;;;;;;183.75;113.32;;;;;;;3.05;57.73;93639.88;4991373;28;20038;-72
2022/12/23 04:15:42;;;;;;;175.32;108.70;;;;;;;2.56;59.22;93633.75;4991604;28;20045;-72
2022/12/23 04:18:09;;;;;;;187.18;119.97;;;;;;;1.15;65.33;93643.19;4991128;28;20072;-71
2022/12/23 04:20:35;;;;;;;185.27;113.72;;;;;;;1.71;64.19;93643.28;4990696;28;20409;-72
2022/12/23 04:23:00;;;;;;;185.93;114.43;;;;;;;2.26;62.08;93648.50;4992464;28;20370;-71
2022/12/23 04:25:25;;;;;;;165.63;105.38;;;;;;;2.73;60.26;93644.75;4990124;28;20045;-72
2022/12/23 04:27:51;;;;;;;175.02;104.15;;;;;;;2.58;60.57;93623.78;4992710;28;20451;-71
2022/12/23 04:30:17;;;;;;;149.43;98.40;;;;;;;2.76;60.52;93642.34;4991231;28;20331;-72
2022/12/23 04:32:43;;;;;;;145.30;91.78;;;;;;;2.86;60.51;93633.66;4991814;28;20197;-71
2022/12/23 04:35:09;;;;;;;138.18;85.28;;;;;;;2.96;60.35;93633.59;4989370;28;20042;-71
2022/12/23 04:37:34;;;;;;;120.95;77.32;;;;;;;3.00;60.19;93607.56;4992666;28;20083;-71
2022/12/23 04:40:00;;;;;;;97.80;63.97;;;;;;;3.11;60.32;93609.91;4991642;28;20440;-72
2022/12/23 04:42:25;;;;;;;87.57;57.03;;;;;;;3.14;60.21;93598.81;4990119;28;20343;-71
2022/12/23 04:44:51;;;;;;;80.78;52.55;;;;;;;3.29;60.14;93619.78;5006037;28;20034;-71
2022/12/23 04:47:16;;;;;;;81.88;51.00;;;;;;;3.03;60.47;93623.59;4991975;28;20614;-71
2022/12/23 04:49:41;;;;;;;125.93;83.63;;;;;;;2.89;61.52;93647.03;4988550;28;20527;-72
2022/12/23 04:52:07;;;;;;;142.73;91.93;;;;;;;3.14;60.57;93638.25;4992388;28;20065;-72
2022/12/23 04:54:33;;;;;;;146.63;93.93;;;;;;;3.24;59.58;93638.19;4991326;28;20100;-72
2022/12/23 04:56:58;;;;;;;127.18;83.57;;;;;;;3.27;59.77;93642.13;4990202;28;20626;-71
2022/12/23 04:59:24;;;;;;;114.65;74.03;;;;;;;3.18;60.05;93643.75;4993609;28;20515;-71
2022/12/23 05:01:49;;;;;;;91.07;58.20;;;;;;;3.12;60.16;93632.50;4990660;28;20104;-71
2022/12/23 05:04:15;;;;;;;73.13;44.95;;;;;;;3.15;60.41;93642.44;4987852;28;20039;-71
2022/12/23 05:06:40;;;;;;;71.28;45.38;;;;;;;3.23;60.52;93655.00;4989992;28;20037;-72
2022/12/23 05:09:06;;;;;;;74.38;48.15;;;;;;;3.34;59.98;93653.13;4995487;28;20030;-72
2022/12/23 05:11:31;;;;;;;101.47;66.10;;;;;;;3.11;60.91;93657.19;4993263;28;20045;-72
2022/12/23 05:13:57;;;;;;;103.18;66.78;;;;;;;3.28;60.77;93683.91;4995316;28;20474;-71
2022/12/23 05:16:22;;;;;;;143.38;90.40;;;;;;;3.03;61.31;93681.41;4995296;28;20045;-72
2022/12/23 05:18:48;;;;;;;128.48;83.97;;;;;;;3.42;59.71;93673.59;4990276;28;20030;-72
2022/12/23 05:21:14;;;;;;;143.90;91.05;;;;;;;3.26;59.81;93690.50;4995636;28;20034;-72
2022/12/23 05:23:39;;;;;;;134.88;89.15;;;;;;;3.38;59.50;93678.59;4994394;28;20069;-72
2022/12/23 05:26:05;;;;;;;121.53;79.82;;;;;;;3.09;59.84;93632.22;4995310;28;20097;-72
2022/12/23 05:28:30;;;;;;;109.18;69.50;;;;;;;3.27;60.25;93657.91;4994409;28;20045;-72
2022/12/23 05:31:04;;;;;;;86.85;57.90;;;;;;;3.34;59.93;93669.69;4993798;28;20038;-71
2022/12/23 05:33:30;;;;;;;98.45;69.03;;;;;;;2.55;62.83;93661.84;4995548;28;20037;-71
2022/12/23 05:35:56;;;;;;;98.45;66.60;;;;;;;3.07;61.78;93666.69;4993349;28;20417;-72
2022/12/23 05:38:21;;;;;;;98.07;63.75;;;;;;;3.32;61.07;93671.03;4996015;28;20034;-71
2022/12/23 05:40:47;;;;;;;93.38;58.70;;;;;;;3.25;60.75;93652.13;4995066;28;20506;-71
2022/12/23 05:43:13;;;;;;;83.15;53.40;;;;;;;2.96;61.80;93650.16;4987338;28;20040;-71
2022/12/23 05:45:39;;;;;;;106.15;67.93;;;;;;;2.95;62.78;93663.56;4994354;28;20435;-71
2022/12/23 05:48:04;;;;;;;89.32;59.55;;;;;;;3.18;62.05;93672.69;4992880;28;20068;-71
2022/12/23 05:50:30;;;;;;;91.63;60.20;;;;;;;3.38;61.58;93659.41;4991848;28;20416;-72
2022/12/23 05:52:56;;;;;;;89.80;57.28;;;;;;;3.54;60.87;93668.00;4990773;28;20611;-72
2022/12/23 05:55:22;;;;;;;65.30;43.60;;;;;;;3.68;60.13;93666.31;4993439;28;20034;-71
2022/12/23 05:57:47;;;;;;;66.25;43.47;;;;;;;3.73;59.97;93676.81;4992164;28;20082;-71
2022/12/23 06:00:13;;;;;;;66.30;44.38;;;;;;;3.83;60.11;93663.59;5002678;28;20026;-72
2022/12/23 06:02:39;;;;;;;65.18;41.58;;;;;;;3.67;60.42;93670.03;4988001;28;20128;-71
2022/12/23 06:05:05;;;;;;;67.30;41.17;;;;;;;3.55;61.11;93672.19;4990512;28;20034;-71
2022/12/23 06:07:30;;;;;;;47.90;32.25;;;;;;;3.50;61.48;93664.34;4991882;28;20131;-72
2022/12/23 06:09:55;;;;;;;47.33;30.70;;;;;;;3.47;60.82;93655.16;4991371;28;20543;-72
2022/12/23 06:12:21;;;;;;;43.80;29.52;;;;;;;3.56;61.35;93663.25;4991817;28;20399;-71
2022/12/23 06:14:46;;;;;;;48.25;28.27;;;;;;;3.61;61.18;93665.84;4988163;28;20153;-72
2022/12/23 06:17:11;;;;;;;36.83;24.00;;;;;;;3.70;60.82;93664.22;4991269;28;20026;-72
2022/12/23 06:19:37;;;;;;;36.33;24.48;;;;;;;3.75;60.60;93658.94;4988825;28;20042;-72
2022/12/23 06:22:02;;;;;;;37.05;25.58;;;;;;;3.74;59.74;93642.34;4991705;28;20050;-73
2022/12/23 06:24:27;;;;;;;38.78;24.52;;;;;;;3.73;59.43;93640.00;4992213;28;20018;-71
2022/12/23 06:26:53;;;;;;;42.33;26.88;;;;;;;3.88;59.75;93674.09;5003923;28;20426;-72
2022/12/23 06:29:20;;;;;;;36.33;23.73;;;;;;;3.67;59.94;93644.50;4985140;28;20566;-71
2022/12/23 06:31:46;;;;;;;39.97;25.38;;;;;;;3.86;60.48;93667.53;4987638;28;20037;-72
2022/12/23 06:34:11;;;;;;;35.92;25.30;;;;;;;3.95;60.21;93653.53;4987851;28;20041;-70
2022/12/23 06:36:36;;;;;;;40.35;27.27;;;;;;;4.00;59.74;93684.28;4982904;28;20026;-72
2022/12/23 06:39:02;;;;;;;41.38;28.58;;;;;;;3.77;59.59;93648.94;4984254;28;20040;-72
2022/12/23 06:41:27;;;;;;;46.97;27.92;;;;;;;4.08;59.52;93678.41;4986477;28;20038;-71
2022/12/23 06:43:52;;;;;;;45.97;29.70;;;;;;;3.80;59.55;93653.63;4990063;28;20463;-71
2022/12/23 06:46:18;;;;;;;46.78;31.75;;;;;;;3.79;59.98;93681.00;4984251;28;20349;-71
2022/12/23 06:48:43;;;;;;;86.85;56.33;;;;;;;2.85;64.33;93674.09;4966896;28;20050;-71
2022/12/23 06:51:09;;;;;;;86.22;55.95;;;;;;;3.27;63.71;93677.09;4993682;28;20046;-72
2022/12/23 06:53:35;;;;;;;84.78;56.42;;;;;;;3.43;63.10;93679.66;4987944;28;20042;-70
2022/12/23 06:56:02;;;;;;;85.10;56.65;;;;;;;3.56;62.36;93682.47;4989175;28;20042;-71
2022/12/23 06:58:27;;;;;;;109.47;69.45;;;;;;;3.47;62.22;93688.56;4989446;28;20065;-71
2022/12/23 07:00:52;;;;;;;122.43;80.72;;;;;;;2.80;65.39;93692.50;4987091;28;20141;-71
2022/12/23 07:03:18;;;;;;;131.88;85.00;;;;;;;3.13;64.16;93691.88;4985860;28;20033;-71
2022/12/23 07:05:47;;;;;;;122.15;82.40;;;;;;;3.55;62.58;93677.47;4992040;28;20030;-71
2022/12/23 07:08:12;;;;;;;124.95;81.40;;;;;;;3.59;61.48;93678.47;4987484;28;20351;-72
2022/12/23 07:10:38;;;;;;;135.00;87.68;;;;;;;3.27;62.22;93687.63;4989340;28;20504;-71
2022/12/23 07:13:03;;;;;;;130.43;86.22;;;;;;;3.22;62.31;93685.00;4986173;28;20068;-71
2022/12/23 07:15:28;;;;;;;149.32;94.30;;;;;;;2.50;64.56;93670.50;4992182;28;20083;-71
2022/12/23 07:17:54;;;;;;;137.82;88.93;;;;;;;2.84;64.59;93693.56;4988848;28;20066;-72
2022/12/23 07:20:19;;;;;;;137.02;91.20;;;;;;;2.79;64.45;93685.69;4985853;28;20507;-72
2022/12/23 07:22:45;;;;;;;148.40;93.97;;;;;;;3.07;63.79;93695.56;4990138;28;20038;-72
2022/12/23 07:25:10;;;;;;;150.50;98.60;;;;;;;3.51;61.72;93677.22;4989082;28;20669;-72
2022/12/23 07:27:36;;;;;;;168.18;107.05;;;;;;;3.70;60.36;93690.53;4985260;28;20064;-71
2022/12/23 07:30:02;;;;;;;179.45;114.25;;;;;;;3.47;60.81;93707.75;4991223;28;20099;-71
2022/12/23 07:32:27;;;;;;;172.82;115.93;;;;;;;3.48;60.80;93684.88;4988548;28;20040;-72
2022/12/23 07:34:53;;;;;;;201.60;129.57;;;;;;;3.31;61.11;93693.91;4987828;28;20034;-71
2022/12/23 07:37:18;;;;;;;200.98;130.52;;;;;;;3.20;62.01;93697.63;4985237;28;20077;-72
2022/12/23 07:39:43;;;;;;;196.15;129.23;;;;;;;3.14;63.00;93703.94;4987432;28;20030;-71
2022/12/23 07:42:09;;;;;;;191.20;126.82;;;;;;;3.36;62.46;93707.00;4988311;28;20064;-72
2022/12/23 07:44:34;;;;;;;187.25;122.18;;;;;;;3.48;61.10;93698.03;4986826;28;20084;-72
2022/12/23 07:47:00;;;;;;;192.07;126.60;;;;;;;3.19;61.51;93711.81;4989377;28;20053;-71
2022/12/23 07:49:25;;;;;;;187.65;120.22;;;;;;;3.09;62.40;93711.84;4987356;28;20513;-72
2022/12/23 07:51:51;;;;;;;185.50;120.88;;;;;;;3.44;61.33;93704.84;4979741;28;20125;-72
2022/12/23 07:54:16;;;;;;;192.45;128.57;;;;;;;3.53;60.72;93709.28;4989210;28;20149;-72
2022/12/23 07:56:41;;;;;;;198.18;126.70;;;;;;;3.38;61.96;93715.41;4981887;28;20527;-71
2022/12/23 07:59:07;;;;;;;193.43;125.03;;;;;;;3.63;60.53;93690.03;4987653;28;20034;-71
2022/12/23 08:01:32;;;;;;;191.38;125.20;;;;;;;3.81;59.62;93708.59;4985734;28;20316;-72
2022/12/23 08:03:57;;;;;;;195.48;127.55;;;;;;;3.15;61.95;93723.91;4989918;28;20048;-71
2022/12/23 08:06:23;;;;;;;197.68;128.48;;;;;;;2.94;63.45;93714.53;4988072;28;20029;-72
2022/12/23 08:08:48;;;;;;;191.27;124.32;;;;;;;3.21;62.44;93720.22;4988697;28;20520;-71
2022/12/23 08:11:15;;;;;;;192.77;121.60;;;;;;;3.03;63.37;93718.19;4989447;28;20038;-71
2022/12/23 08:13:42;;;;;;;198.65;125.45;;;;;;;2.83;63.65;93708.53;4990509;28;20144;-71
2022/12/23 08:16:08;;;;;;;192.45;121.00;;;;;;;3.16;62.98;93714.97;4991336;28;20041;-71
2022/12/23 08:18:36;;;;;;;192.45;116.78;;;;;;;3.46;62.15;93721.16;4984748;28;20080;-71
2022/12/23 08:21:16;;;;;;;168.88;111.63;;;;;;;3.70;60.59;93716.81;4991121;28;20152;-72
2022/12/23 08:23:42;;;;;;;177.07;111.63;;;;;;;3.96;60.32;93720.88;4989482;28;20042;-71
2022/12/23 08:26:27;;;;;;;172.68;112.45;;;;;;;3.98;60.33;93710.84;4988062;28;20346;-71
2022/12/23 08:28:52;;;;;;;150.38;101.45;;;;;;;4.03;59.64;93689.75;4985803;28;20952;-73
2022/12/23 08:31:23;;;;;;;161.68;104.32;;;;;;;4.28;59.21;93717.72;4987576;28;20049;-71
2022/12/23 08:33:51;;;;;;;144.13;97.68;;;;;;;4.21;58.72;93717.25;4987308;28;20022;-73
2022/12/23 08:36:20;;;;;;;162.77;98.72;;;;;;;3.86;59.15;93709.63;4991522;28;20485;-72
2022/12/23 08:38:45;;;;;;;154.05;98.00;;;;;;;4.07;59.41;93711.81;4989659;28;20042;-73
2022/12/23 08:41:14;;;;;;;154.93;98.57;;;;;;;3.79;59.70;93689.66;4989501;28;20041;-73
2022/12/23 08:43:40;;;;;;;154.00;95.25;;;;;;;3.78;60.93;93711.75;4984483;28;20142;-72
2022/12/23 08:46:06;;;;;;;147.02;95.13;;;;;;;3.42;62.51;93709.63;4989029;28;20042;-72
2022/12/23 08:48:32;;;;;;;133.27;87.68;;;;;;;3.75;62.41;93716.78;4990331;28;20022;-73
2022/12/23 08:51:06;;;;;;;136.52;90.68;;;;;;;4.03;60.99;93708.19;4996408;28;20034;-73
2022/12/23 08:53:33;;;;;;;143.10;93.03;;;;;;;3.77;61.59;93712.06;4988894;28;20129;-71
2022/12/23 08:56:02;;;;;;;147.68;90.80;;;;;;;3.95;61.84;93708.00;4992702;28;20037;-73
2022/12/23 08:58:28;;;;;;;137.95;91.05;;;;;;;4.10;60.53;93700.78;4992481;28;20549;-73
2022/12/23 09:00:53;;;;;;;133.05;85.65;;;;;;;4.15;60.97;93707.84;4993308;28;20124;-73
2022/12/23 09:03:19;;;;;;;130.25;84.57;;;;;;;4.53;59.47;93703.59;4992927;28;20578;-72
2022/12/23 09:05:44;;;;;;;132.25;85.82;;;;;;;4.44;59.62;93713.16;4994007;28;20042;-73
2022/12/23 09:08:10;;;;;;;131.82;83.63;;;;;;;4.71;59.01;93708.16;4992549;28;20033;-72
2022/12/23 09:10:42;;;;;;;125.72;84.15;;;;;;;4.87;58.34;93719.34;4992414;28;21367;-72
2022/12/23 09:13:09;;;;;;;132.40;86.93;;;;;;;4.67;58.23;93699.25;4989406;28;20038;-72
2022/12/23 09:15:39;;;;;;;143.73;91.07;;;;;;;4.79;58.07;93706.78;4991345;28;20388;-73
2022/12/23 09:18:04;;;;;;;138.32;93.88;;;;;;;4.65;58.43;93707.41;4991922;28;20492;-72
2022/12/23 09:20:30;;;;;;;153.15;96.88;;;;;;;4.89;57.46;93689.03;4987436;28;20558;-73
2022/12/23 09:22:55;;;;;;;153.82;100.25;;;;;;;5.08;57.07;93710.94;4992129;28;20037;-72
2022/12/23 09:25:21;;;;;;;157.48;104.20;;;;;;;5.38;55.33;93709.78;4989980;28;20034;-72
2022/12/23 09:27:46;;;;;;;167.63;106.15;;;;;;;5.31;56.18;93709.34;4993158;28;20053;-72
2022/12/23 09:30:12;;;;;;;156.10;106.25;;;;;;;5.44;55.93;93713.13;4994461;28;20076;-73
2022/12/23 09:32:37;;;;;;;165.90;108.75;;;;;;;5.41;55.62;93711.06;4993738;28;20030;-71
2022/12/23 09:35:03;;;;;;;170.73;107.93;;;;;;;5.36;55.36;93697.94;4989321;28;20042;-70
2022/12/23 09:37:28;;;;;;;158.70;104.47;;;;;;;5.50;55.10;93704.09;4993093;28;20038;-70
2022/12/23 09:39:54;;;;;;;166.55;105.43;;;;;;;5.49;54.78;93705.94;4991829;28;20034;-71
2022/12/23 09:42:37;;;;;;;167.52;107.88;;;;;;;5.30;56.38;93707.00;4997193;28;20017;-72
2022/12/23 09:45:15;;;;;;;170.98;107.63;;;;;;;5.42;55.33;93702.09;4976266;28;20137;-72
2022/12/23 09:47:42;;;;;;;161.63;106.82;;;;;;;5.39;55.72;93700.00;4991726;28;20077;-71
2022/12/23 09:50:20;;;;;;;159.88;104.65;;;;;;;5.58;55.74;93711.38;4994502;28;20308;-71
2022/12/23 09:52:59;;;;;;;155.35;102.95;;;;;;;5.25;56.22;93705.19;4996975;28;20038;-72
2022/12/23 09:55:47;;;;;;;159.70;104.53;;;;;;;5.66;55.73;93702.84;4996528;28;20045;-72
2022/12/23 09:58:16;;;;;;;160.00;109.30;;;;;;;5.76;54.85;93704.56;4993646;28;20045;-72
2022/12/23 10:00:53;;;;;;;153.82;102.55;;;;;;;5.73;54.71;93705.91;4990428;28;20053;-72
2022/12/23 10:03:32;;;;;;;152.82;101.05;;;;;;;6.03;54.73;93699.41;4994262;28;20623;-72
2022/12/23 10:06:08;;;;;;;146.43;101.05;;;;;;;6.24;53.84;93705.19;4992409;28;20647;-73
2022/12/23 10:08:38;;;;;;;161.05;106.18;;;;;;;6.18;53.70;93704.47;4990294;28;20073;-73
2022/12/23 10:11:06;;;;;;;155.15;102.40;;;;;;;6.28;53.46;93700.91;4986857;28;20563;-72
2022/12/23 10:13:40;;;;;;;150.63;101.80;;;;;;;6.42;52.63;93691.94;4990367;28;20149;-73
2022/12/23 10:16:12;;;;;;;158.37;105.20;;;;;;;6.33;53.24;93687.63;4989664;28;20049;-73
2022/12/23 10:18:50;;;;;;;166.63;110.03;;;;;;;6.48;52.99;93689.22;4989484;28;20022;-73
2022/12/23 10:21:30;;;;;;;163.93;109.80;;;;;;;6.51;53.54;93678.84;4990524;28;20404;-71
2022/12/23 10:24:01;;;;;;;163.13;109.28;;;;;;;6.42;53.89;93686.66;4991304;28;20069;-73
2022/12/23 10:26:48;;;;;;;161.25;107.82;;;;;;;6.47;54.40;93677.88;4993088;28;20038;-73
2022/12/23 10:29:17;;;;;;;160.82;108.95;;;;;;;6.72;53.30;93658.94;4990510;28;20457;-72
2022/12/23 10:32:14;;;;;;;160.13;106.35;;;;;;;6.95;53.13;93672.25;4990761;28;21311;-72
2022/12/23 10:34:45;;;;;;;143.65;97.72;;;;;;;7.05;53.00;93672.06;4993995;28;20046;-73
2022/12/23 10:37:13;;;;;;;154.23;104.05;;;;;;;7.04;52.94;93662.59;4990489;28;20042;-73
2022/12/23 10:40:09;;;;;;;135.15;93.43;;;;;;;7.23;53.36;93658.75;4990104;28;20057;-73
2022/12/23 10:42:34;;;;;;;;;;;;;;;7.16;53.54;93663.66;4993839;28;20026;-72
2022/12/23 10:45:10;;;;;;;146.87;95.87;;;;;;;7.44;53.10;93658.31;4991024;28;19956;-73
2022/12/23 10:48:21;;;;;;;149.70;101.43;;;;;;;7.14;52.12;93652.56;5004254;28;20685;-72
2022/12/23 10:50:57;;;;;;;165.98;100.13;;;;;;;6.82;52.38;93650.81;4988924;28;20124;-72
2022/12/23 10:53:45;;;;;;;158.15;102.10;;;;;;;6.70;52.45;93650.50;4986860;28;20568;-72
2022/12/23 10:56:12;;;;;;;142.43;98.00;;;;;;;6.28;54.42;93648.88;4987552;28;20049;-73
2022/12/23 10:58:42;;;;;;;146.20;100.82;;;;;;;6.23;54.87;93640.25;4988696;28;20052;-72
2022/12/23 11:01:09;;;;;;;160.07;102.63;;;;;;;6.66;53.85;93646.88;4990323;28;20499;-72
2022/12/23 11:03:42;;;;;;;137.07;91.30;;;;;;;6.95;53.18;93651.09;4990506;28;20017;-74
2022/12/23 11:06:10;;;;;;;131.68;91.85;;;;;;;7.18;53.02;93655.41;4990609;28;20038;-72
2022/12/23 11:08:37;;;;;;;135.70;94.38;;;;;;;7.43;52.19;93652.25;4991746;28;20046;-72
2022/12/23 11:11:04;;;;;;;130.52;89.15;;;;;;;7.62;52.03;93644.19;4986302;28;20500;-73
2022/12/23 11:13:39;;;;;;;134.55;91.50;;;;;;;7.80;51.07;93647.78;4987569;28;20575;-73
2022/12/23 11:16:24;;;;;;;138.27;95.05;;;;;;;7.86;50.79;93647.38;4990999;28;20383;-73
2022/12/23 11:18:55;;;;;;;141.55;94.05;;;;;;;7.98;50.69;93644.19;4991133;28;20128;-73
2022/12/23 11:21:21;;;;;;;145.52;96.05;;;;;;;8.05;50.14;93631.31;4990239;28;20022;-73
2022/12/23 11:23:46;;;;;;;143.98;94.63;;;;;;;8.18;50.85;93645.56;4988422;28;20535;-74
2022/12/23 11:26:18;;;;;;;127.90;89.15;;;;;;;8.32;50.57;93641.75;4986996;28;20124;-73
2022/12/23 11:28:55;;;;;;;139.10;94.95;;;;;;;8.47;49.31;93641.38;4988511;28;20038;-72
2022/12/23 11:31:34;;;;;;;148.32;96.85;;;;;;;8.35;49.76;93641.19;4985455;28;20133;-72
2022/12/23 11:34:27;;;;;;;144.38;99.10;;;;;;;8.16;49.93;93648.53;4989203;28;20137;-72
2022/12/23 11:36:58;;;;;;;140.50;97.93;;;;;;;7.99;50.47;93638.59;4990663;28;20030;-73
2022/12/23 11:39:32;;;;;;;145.70;99.72;;;;;;;8.01;50.50;93636.44;4993737;28;20491;-73
2022/12/23 11:42:26;;;;;;;134.23;93.15;;;;;;;8.08;49.71;93654.53;4993735;28;20386;-73
2022/12/23 11:44:53;;;;;;;144.65;93.30;;;;;;;8.01;50.20;93660.28;4986265;28;20037;-72
2022/12/23 11:47:21;;;;;;;137.55;95.40;;;;;;;8.32;49.63;93657.66;4994105;28;20115;-72
2022/12/23 11:49:48;;;;;;;145.18;95.93;;;;;;;8.02;49.71;93637.22;4988772;28;20046;-72
2022/12/23 11:52:17;;;;;;;142.63;98.60;;;;;;;8.05;49.68;93657.78;4993621;28;20050;-73
2022/12/23 11:54:50;;;;;;;146.50;96.05;;;;;;;8.16;49.85;93659.13;4992039;28;20042;-73
2022/12/23 11:57:20;;;;;;;152.68;99.13;;;;;;;7.95;50.60;93642.13;4992578;28;20053;-72